createdAt,value
2018-10-19T00:01:53.554Z,13.90
2018-10-19T00:04:22.398Z,13.90
2018-10-19T00:06:50.904Z,13.90
2018-10-19T00:09:19.388Z,13.90
2018-10-19T00:11:47.897Z,14.00
2018-10-19T00:14:16.755Z,13.90
2018-10-19T00:16:45.281Z,14.00
2018-10-19T00:19:13.789Z,14.00
2018-10-19T00:21:42.331Z,14.00
2018-10-19T00:24:10.836Z,14.00
2018-10-19T00:26:39.390Z,13.90
2018-10-19T00:29:08.933Z,13.90
2018-10-19T00:31:37.573Z,13.90
2018-10-19T00:34:07.124Z,13.90
2018-10-19T00:36:35.726Z,13.80
2018-10-19T00:39:06.374Z,13.80
2018-10-19T00:41:35.034Z,13.80
2018-10-19T00:44:03.558Z,13.80
2018-10-19T00:46:33.212Z,13.80
2018-10-19T00:49:02.036Z,13.80
2018-10-19T00:52:01.921Z,13.80
2018-10-19T00:54:31.130Z,13.80
2018-10-19T00:57:00.343Z,13.80
2018-10-19T00:59:29.333Z,13.80
2018-10-19T01:01:58.260Z,13.80
2018-10-19T01:04:26.762Z,13.70
2018-10-19T01:06:55.346Z,13.80
2018-10-19T01:09:24.179Z,13.80
2018-10-19T01:11:52.684Z,13.80
2018-10-19T01:14:21.655Z,13.80
2018-10-19T01:16:50.821Z,13.80
2018-10-19T01:19:19.712Z,13.80
2018-10-19T01:21:48.533Z,13.80
2018-10-19T01:24:17.114Z,13.80
2018-10-19T01:26:46.304Z,13.80
2018-10-19T01:29:14.953Z,13.90
2018-10-19T01:31:43.564Z,13.80
2018-10-19T01:34:12.099Z,13.90
2018-10-19T01:36:41.939Z,13.90
2018-10-19T01:39:11.720Z,13.80
2018-10-19T01:41:41.411Z,13.90
2018-10-19T01:44:10.997Z,13.80
2018-10-19T01:46:44.902Z,13.80
2018-10-19T01:49:14.096Z,13.80
2018-10-19T01:51:44.553Z,13.80
2018-10-19T01:54:13.443Z,13.80
2018-10-19T01:56:42.273Z,13.80
2018-10-19T01:59:11.196Z,13.80
2018-10-19T02:01:39.809Z,13.80
2018-10-19T02:04:08.641Z,13.80
2018-10-19T02:06:37.148Z,13.80
2018-10-19T02:09:06.691Z,13.80
2018-10-19T02:11:35.824Z,13.80
2018-10-19T02:14:04.765Z,13.80
2018-10-19T02:16:33.302Z,13.80
2018-10-19T02:19:01.810Z,13.80
2018-10-19T02:21:30.312Z,13.90
2018-10-19T02:23:59.128Z,13.90
2018-10-19T02:26:27.976Z,13.90
2018-10-19T02:28:56.577Z,13.80
2018-10-19T02:31:25.192Z,13.80
2018-10-19T02:33:54.040Z,13.80
2018-10-19T02:36:23.214Z,13.80
2018-10-19T02:38:52.427Z,13.80
2018-10-19T02:41:21.417Z,13.80
2018-10-19T02:43:49.935Z,13.80
2018-10-19T02:46:18.772Z,13.70
2018-10-19T02:48:47.608Z,13.80
2018-10-19T02:51:16.146Z,13.80
2018-10-19T02:53:45.166Z,13.80
2018-10-19T02:56:13.997Z,13.80
2018-10-19T02:58:42.505Z,13.80
2018-10-19T03:01:11.341Z,13.80
2018-10-19T03:03:39.849Z,13.80
2018-10-19T03:06:08.394Z,13.80
2018-10-19T03:08:36.872Z,13.70
2018-10-19T03:11:06.016Z,13.70
2018-10-19T03:13:34.700Z,13.60
2018-10-19T03:16:03.566Z,13.60
2018-10-19T03:18:32.395Z,13.60
2018-10-19T03:21:01.283Z,13.70
2018-10-19T03:23:29.940Z,13.60
2018-10-19T03:25:58.454Z,13.60
2018-10-19T03:28:27.304Z,13.60
2018-10-19T03:30:56.344Z,13.70
2018-10-19T03:33:25.670Z,13.60
2018-10-19T03:35:54.185Z,13.70
2018-10-19T03:38:22.728Z,13.60
2018-10-19T03:40:51.242Z,13.60
2018-10-19T03:43:19.743Z,13.60
2018-10-19T03:45:48.607Z,13.60
2018-10-19T03:48:17.120Z,13.70
2018-10-19T03:50:45.992Z,13.60
2018-10-19T03:53:14.874Z,13.60
2018-10-19T03:55:43.877Z,13.60
2018-10-19T03:58:12.620Z,13.60
2018-10-19T04:00:41.713Z,13.60
2018-10-19T04:03:10.635Z,13.50
2018-10-19T04:05:39.314Z,13.50
2018-10-19T04:08:08.722Z,13.40
2018-10-19T04:10:37.250Z,13.50
2018-10-19T04:13:05.801Z,13.50
2018-10-19T04:15:35.570Z,13.50
2018-10-19T04:18:04.460Z,13.40
2018-10-19T04:20:33.196Z,13.30
2018-10-19T04:23:05.511Z,13.30
2018-10-19T04:25:35.445Z,13.30
2018-10-19T04:28:04.585Z,13.30
2018-10-19T04:30:33.612Z,13.30
2018-10-19T04:33:03.052Z,13.30
2018-10-19T04:35:32.449Z,13.40
2018-10-19T04:38:02.438Z,13.40
2018-10-19T04:40:30.942Z,13.40
2018-10-19T04:42:59.812Z,13.30
2018-10-19T04:45:28.344Z,13.30
2018-10-19T04:47:56.850Z,13.40
2018-10-19T04:50:25.384Z,13.30
2018-10-19T04:52:53.939Z,13.30
2018-10-19T04:55:22.924Z,13.30
2018-10-19T04:57:51.761Z,13.20
2018-10-19T05:00:22.180Z,13.10
2018-10-19T05:02:51.534Z,13.00
2018-10-19T05:05:20.417Z,13.00
2018-10-19T05:07:49.401Z,13.00
2018-10-19T05:10:18.388Z,13.00
2018-10-19T05:12:47.303Z,13.00
2018-10-19T05:15:15.968Z,13.00
2018-10-19T05:17:44.825Z,13.10
2018-10-19T05:20:16.368Z,13.10
2018-10-19T05:22:46.139Z,13.10
2018-10-19T05:25:14.677Z,13.10
2018-10-19T05:27:43.777Z,13.10
2018-10-19T05:30:13.389Z,13.10
2018-10-19T05:32:43.742Z,13.10
2018-10-19T05:35:12.904Z,13.20
2018-10-19T05:37:42.443Z,13.20
2018-10-19T05:40:12.514Z,13.10
2018-10-19T05:42:41.131Z,13.00
2018-10-19T05:45:11.433Z,13.00
2018-10-19T05:47:40.717Z,13.00
2018-10-19T05:50:10.574Z,13.10
2018-10-19T05:52:39.688Z,13.00
2018-10-19T05:55:09.364Z,13.00
2018-10-19T05:57:38.124Z,13.10
2018-10-19T06:00:07.823Z,13.10
2018-10-19T06:02:37.089Z,13.20
2018-10-19T06:05:06.501Z,13.20
2018-10-19T06:07:36.082Z,13.20
2018-10-19T06:10:05.552Z,13.10
2018-10-19T06:12:34.078Z,13.00
2018-10-19T06:15:03.081Z,13.00
2018-10-19T06:17:31.607Z,13.00
2018-10-19T06:20:00.187Z,13.00
2018-10-19T06:22:28.836Z,13.00
2018-10-19T06:24:58.037Z,13.10
2018-10-19T06:27:26.880Z,13.10
2018-10-19T06:29:55.717Z,13.10
2018-10-19T06:32:24.549Z,13.00
2018-10-19T06:34:53.425Z,13.00
2018-10-19T06:37:22.142Z,13.00
2018-10-19T06:39:50.725Z,13.00
2018-10-19T06:42:20.328Z,13.00
2018-10-19T06:44:49.219Z,13.00
2018-10-19T06:47:18.190Z,13.00
2018-10-19T06:49:47.825Z,13.00
2018-10-19T06:52:16.332Z,13.00
2018-10-19T06:54:44.928Z,13.00
2018-10-19T06:57:14.114Z,13.10
2018-10-19T06:59:42.652Z,13.10
2018-10-19T07:02:11.284Z,13.10
2018-10-19T07:04:40.304Z,13.10
2018-10-19T07:07:09.476Z,13.10
2018-10-19T07:09:38.321Z,13.10
2018-10-19T07:12:07.414Z,13.10
2018-10-19T07:14:36.416Z,13.10
2018-10-19T07:17:05.009Z,13.10
2018-10-19T07:19:33.711Z,13.20
2018-10-19T07:22:02.216Z,13.20
2018-10-19T07:24:31.049Z,13.20
2018-10-19T07:26:59.573Z,13.20
2018-10-19T07:29:28.481Z,13.10
2018-10-19T07:31:57.923Z,13.20
2018-10-19T07:34:27.498Z,13.20
2018-10-19T07:36:56.342Z,13.10
2018-10-19T07:39:25.114Z,13.00
2018-10-19T07:41:53.780Z,13.10
2018-10-19T07:44:23.637Z,13.10
2018-10-19T07:46:52.506Z,13.00
2018-10-19T07:49:21.415Z,13.00
2018-10-19T07:51:49.948Z,12.90
2018-10-19T07:54:26.064Z,13.00
2018-10-19T07:56:54.812Z,12.90
2018-10-19T07:59:23.337Z,12.90
2018-10-19T08:01:52.674Z,12.90
2018-10-19T08:04:21.394Z,12.90
2018-10-19T08:06:50.343Z,12.90
2018-10-19T08:09:19.196Z,12.90
2018-10-19T08:11:49.649Z,12.80
2018-10-19T08:14:25.073Z,12.80
2018-10-19T08:16:53.618Z,12.80
2018-10-19T08:19:22.667Z,12.70
2018-10-19T08:21:52.206Z,12.80
2018-10-19T08:24:20.743Z,12.70
2018-10-19T08:26:49.755Z,12.70
2018-10-19T08:29:18.501Z,12.70
2018-10-19T08:31:47.026Z,12.70
2018-10-19T08:34:15.873Z,12.70
2018-10-19T08:36:44.533Z,12.60
2018-10-19T08:39:13.541Z,12.50
2018-10-19T08:41:42.131Z,12.60
2018-10-19T08:44:11.105Z,12.60
2018-10-19T08:46:41.320Z,12.70
2018-10-19T08:49:11.455Z,12.70
2018-10-19T08:51:41.864Z,12.70
2018-10-19T08:54:11.084Z,12.80
2018-10-19T08:56:40.246Z,12.70
2018-10-19T08:59:08.833Z,12.60
2018-10-19T09:01:37.480Z,12.40
2018-10-19T09:04:06.363Z,12.50
2018-10-19T09:06:35.721Z,12.40
2018-10-19T09:09:08.473Z,12.50
2018-10-19T09:11:37.628Z,12.50
2018-10-19T09:14:17.793Z,12.50
2018-10-19T09:16:48.747Z,12.40
2018-10-19T09:19:21.345Z,12.40
2018-10-19T09:21:50.860Z,12.40
2018-10-19T09:24:19.421Z,12.40
2018-10-19T09:26:49.135Z,12.40
2018-10-19T09:29:19.882Z,12.50
2018-10-19T09:31:49.560Z,12.50
2018-10-19T09:34:18.075Z,12.50
2018-10-19T09:36:46.697Z,12.50
2018-10-19T09:39:15.456Z,12.50
2018-10-19T09:41:44.161Z,12.40
2018-10-19T09:44:12.693Z,12.40
2018-10-19T09:46:41.852Z,12.50
2018-10-19T09:49:12.180Z,12.50
2018-10-19T09:51:41.677Z,12.50
2018-10-19T09:54:11.429Z,12.40
2018-10-19T09:56:40.328Z,12.50
2018-10-19T09:59:09.303Z,12.50
2018-10-19T10:01:39.096Z,12.50
2018-10-19T10:04:07.953Z,12.50
2018-10-19T10:06:37.114Z,12.60
2018-10-19T10:09:11.683Z,12.60
2018-10-19T10:11:40.864Z,12.50
2018-10-19T10:14:10.416Z,12.60
2018-10-19T10:16:55.417Z,12.60
2018-10-19T10:19:24.087Z,12.40
2018-10-19T10:21:53.688Z,12.50
2018-10-19T10:24:23.054Z,12.50
2018-10-19T10:26:51.606Z,12.50
2018-10-19T10:29:20.120Z,12.60
2018-10-19T10:31:49.014Z,12.50
2018-10-19T10:34:17.582Z,12.50
2018-10-19T10:36:46.608Z,12.40
2018-10-19T10:39:15.491Z,12.50
2018-10-19T10:41:44.187Z,12.60
2018-10-19T10:44:13.128Z,12.60
2018-10-19T10:46:41.679Z,12.70
2018-10-19T10:49:10.267Z,12.70
2018-10-19T10:51:38.941Z,12.70
2018-10-19T10:54:07.450Z,12.70
2018-10-19T10:56:36.707Z,12.60
2018-10-19T10:59:05.234Z,12.60
2018-10-19T11:01:33.717Z,12.60
2018-10-19T11:04:02.594Z,12.60
2018-10-19T11:06:32.279Z,12.60
2018-10-19T11:09:00.788Z,12.60
2018-10-19T11:11:29.336Z,12.60
2018-10-19T11:13:57.910Z,12.60
2018-10-19T11:16:26.436Z,12.60
2018-10-19T11:18:54.990Z,12.60
2018-10-19T11:21:42.650Z,12.60
2018-10-19T11:24:11.639Z,12.60
2018-10-19T11:26:40.333Z,12.60
2018-10-19T11:29:09.741Z,12.60
2018-10-19T11:31:40.325Z,12.60
2018-10-19T11:34:08.926Z,12.60
2018-10-19T11:36:42.605Z,12.60
2018-10-19T11:39:13.698Z,12.70
2018-10-19T11:41:42.532Z,12.70
2018-10-19T11:44:11.776Z,12.70
2018-10-19T11:46:45.127Z,12.70
2018-10-19T11:49:14.474Z,12.70
2018-10-19T11:52:04.106Z,12.70
2018-10-19T11:54:32.836Z,12.70
2018-10-19T11:57:01.755Z,12.70
2018-10-19T11:59:30.409Z,12.70
2018-10-19T12:02:02.573Z,12.70
2018-10-19T12:04:31.487Z,12.60
2018-10-19T12:07:00.932Z,12.70
2018-10-19T12:09:29.964Z,12.70
2018-10-19T12:11:58.790Z,12.60
2018-10-19T12:14:27.301Z,12.70
2018-10-19T12:16:56.343Z,12.60
2018-10-19T12:19:25.282Z,12.70
2018-10-19T12:21:54.480Z,12.70
2018-10-19T12:24:22.988Z,12.70
2018-10-19T12:26:51.828Z,12.70
2018-10-19T12:29:20.687Z,12.70
2018-10-19T12:31:49.575Z,12.70
2018-10-19T12:34:18.098Z,12.70
2018-10-19T12:36:46.958Z,12.80
2018-10-19T12:39:15.501Z,12.70
2018-10-19T12:41:44.278Z,12.70
2018-10-19T12:44:14.614Z,12.70
2018-10-19T12:46:54.520Z,12.70
2018-10-19T12:49:24.165Z,12.80
2018-10-19T12:52:01.153Z,12.80
2018-10-19T12:54:30.095Z,12.80
2018-10-19T12:56:59.137Z,12.80
2018-10-19T12:59:27.685Z,12.80
2018-10-19T13:01:57.717Z,12.70
2018-10-19T13:04:27.443Z,12.80
2018-10-19T13:06:56.766Z,12.80
2018-10-19T13:09:26.336Z,12.80
2018-10-19T13:11:54.868Z,12.80
2018-10-19T13:14:23.425Z,12.80
2018-10-19T13:16:52.018Z,12.90
2018-10-19T13:19:20.597Z,12.90
2018-10-19T13:21:50.433Z,12.90
2018-10-19T13:24:19.276Z,12.80
2018-10-19T13:33:46.353Z,12.80
2018-10-19T13:36:15.230Z,12.80
2018-10-19T13:38:43.991Z,12.80
2018-10-19T13:41:12.849Z,12.90
2018-10-19T13:43:42.404Z,12.90
2018-10-19T13:46:11.272Z,12.90
2018-10-19T13:48:39.828Z,12.90
2018-10-19T13:51:08.426Z,12.90
2018-10-19T13:53:37.813Z,12.80
2018-10-19T13:56:07.069Z,12.90
2018-10-19T13:58:36.481Z,12.90
2018-10-19T14:01:05.731Z,12.90
2018-10-19T14:03:34.889Z,12.90
2018-10-19T14:06:04.075Z,13.00
2018-10-19T14:08:32.922Z,13.00
2018-10-19T14:11:01.905Z,13.10
2018-10-19T14:13:32.256Z,13.10
2018-10-19T14:16:00.803Z,13.10
2018-10-19T14:18:29.377Z,13.10
2018-10-19T14:20:57.955Z,13.10
2018-10-19T14:23:27.189Z,13.10
2018-10-19T14:25:55.751Z,13.10
2018-10-19T14:28:24.352Z,13.10
2018-10-19T14:30:52.906Z,13.10
2018-10-19T14:33:22.465Z,13.20
2018-10-19T14:35:51.727Z,13.20
2018-10-19T14:38:21.215Z,13.30
2018-10-19T14:40:51.047Z,13.30
2018-10-19T14:43:21.051Z,13.30
2018-10-19T14:45:49.596Z,13.30
2018-10-19T14:48:18.386Z,13.20
2018-10-19T14:50:51.019Z,13.20
2018-10-19T14:53:19.582Z,13.20
2018-10-19T14:55:48.605Z,13.20
2018-10-19T14:58:17.183Z,13.20
2018-10-19T15:00:50.161Z,13.20
2018-10-19T15:03:19.082Z,13.20
2018-10-19T15:05:50.640Z,13.20
2018-10-19T15:08:19.395Z,13.20
2018-10-19T15:10:48.477Z,13.20
2018-10-19T15:13:17.069Z,13.20
2018-10-19T15:15:46.153Z,13.20
2018-10-19T15:18:15.286Z,13.20
2018-10-19T15:22:11.541Z,13.20
2018-10-19T15:24:40.101Z,13.20
2018-10-19T15:27:09.186Z,13.30
2018-10-19T15:29:38.009Z,13.30
2018-10-19T15:32:06.620Z,13.20
2018-10-19T15:34:35.205Z,13.10
2018-10-19T15:37:03.823Z,13.10
2018-10-19T15:39:32.705Z,13.10
2018-10-19T15:42:02.622Z,13.00
2018-10-19T15:44:32.224Z,13.10
2018-10-19T15:47:02.212Z,13.10
2018-10-19T15:49:31.105Z,13.10
2018-10-19T15:51:59.697Z,13.10
2018-10-19T15:54:28.243Z,13.10
2018-10-19T15:56:57.193Z,13.10
2018-10-19T15:59:25.801Z,13.10
2018-10-19T16:01:54.705Z,13.10
2018-10-19T16:04:23.634Z,13.10
2018-10-19T16:06:52.883Z,13.10
2018-10-19T16:09:21.852Z,13.20
2018-10-19T16:11:50.406Z,13.10
2018-10-19T16:14:19.268Z,13.10
2018-10-19T16:16:47.825Z,13.10
2018-10-19T16:19:16.786Z,13.10
2018-10-19T16:21:45.301Z,13.00
2018-10-19T16:24:14.271Z,13.10
2018-10-19T16:26:43.315Z,13.10
2018-10-19T16:29:14.184Z,12.90
2018-10-19T16:31:42.716Z,12.90
2018-10-19T16:34:11.313Z,13.00
2018-10-19T16:36:39.876Z,13.00
2018-10-19T16:39:10.382Z,13.00
2018-10-19T16:41:39.352Z,13.00
2018-10-19T16:44:08.083Z,13.00
2018-10-19T16:46:37.214Z,13.00
2018-10-19T16:49:05.777Z,13.00
2018-10-19T16:51:34.645Z,13.00
2018-10-19T16:54:03.283Z,13.00
2018-10-19T16:56:32.269Z,13.10
2018-10-19T16:59:00.836Z,13.00
2018-10-19T17:01:29.433Z,13.00
2018-10-19T17:03:57.952Z,13.10
2018-10-19T17:06:26.683Z,13.00
2018-10-19T17:08:55.204Z,13.00
2018-10-19T17:11:24.248Z,13.00
2018-10-19T17:13:52.828Z,13.00
2018-10-19T17:16:22.429Z,13.00
2018-10-19T17:18:52.300Z,13.00
2018-10-19T17:21:21.292Z,13.00
2018-10-19T17:23:54.789Z,13.00
2018-10-19T17:26:32.962Z,13.00
2018-10-19T17:29:01.933Z,13.00
2018-10-19T17:31:31.304Z,13.00
2018-10-19T17:34:00.361Z,13.00
2018-10-19T17:36:29.366Z,13.00
2018-10-19T17:38:58.823Z,12.90
2018-10-19T17:41:28.086Z,13.00
2018-10-19T17:43:57.879Z,13.00
2018-10-19T17:46:26.492Z,12.90
2018-10-19T17:48:55.354Z,13.00
2018-10-19T17:51:26.469Z,12.90
2018-10-19T17:53:59.876Z,12.90
2018-10-19T17:56:28.390Z,12.90
2018-10-19T17:58:57.701Z,12.90
2018-10-19T18:01:32.724Z,12.90
2018-10-19T18:04:01.893Z,12.90
2018-10-19T18:06:30.707Z,13.00
2018-10-19T18:08:59.315Z,13.00
2018-10-19T18:11:28.560Z,13.00
2018-10-19T18:13:57.784Z,13.10
2018-10-19T18:16:26.349Z,13.10
2018-10-19T18:18:54.948Z,13.10
2018-10-19T18:21:23.608Z,13.10
2018-10-19T18:23:52.350Z,13.10
2018-10-19T18:26:21.901Z,13.10
2018-10-19T18:28:50.920Z,13.10
2018-10-19T18:31:20.009Z,13.10
2018-10-19T18:33:49.491Z,13.00
2018-10-19T18:36:18.061Z,13.00
2018-10-19T18:38:47.386Z,13.00
2018-10-19T18:41:16.353Z,13.00
2018-10-19T18:43:46.061Z,13.00
2018-10-19T18:46:19.179Z,13.00
2018-10-19T18:48:48.850Z,13.00
2018-10-19T18:51:26.444Z,13.00
2018-10-19T18:54:01.491Z,13.00
2018-10-19T18:56:30.334Z,13.00
2018-10-19T18:58:58.940Z,13.00
2018-10-19T19:01:29.940Z,13.00
2018-10-19T19:03:59.897Z,12.90
2018-10-19T19:06:29.846Z,12.90
2018-10-19T19:08:59.094Z,12.90
2018-10-19T19:11:27.888Z,12.90
2018-10-19T19:13:56.814Z,12.90
2018-10-19T19:16:28.725Z,12.90
2018-10-19T19:19:00.851Z,12.90
2018-10-19T19:21:38.627Z,12.90
2018-10-19T19:25:19.652Z,12.90
2018-10-19T19:27:51.900Z,12.90
2018-10-19T19:30:20.782Z,12.90
2018-10-19T19:32:55.993Z,12.90
2018-10-19T19:35:24.575Z,12.90
2018-10-19T19:37:54.523Z,12.80
2018-10-19T19:41:33.731Z,12.80
2018-10-19T19:44:07.570Z,12.80
2018-10-19T19:49:18.666Z,12.80
2018-10-19T19:51:48.096Z,12.80
2018-10-19T19:54:16.993Z,12.80
2018-10-19T19:56:52.147Z,12.70
2018-10-19T19:59:40.060Z,12.80
2018-10-19T20:05:13.384Z,12.80
2018-10-19T20:07:48.325Z,12.80
2018-10-19T20:10:19.709Z,12.70
2018-10-19T20:13:01.131Z,12.80
2018-10-19T20:15:36.228Z,12.80
2018-10-19T20:18:09.916Z,12.80
2018-10-19T20:20:38.633Z,12.70
2018-10-19T20:23:11.779Z,12.70
2018-10-19T20:25:40.763Z,12.70
2018-10-19T20:28:09.368Z,12.70
2018-10-19T20:30:39.991Z,12.70
2018-10-19T20:33:09.922Z,12.70
2018-10-19T20:35:39.572Z,12.70
2018-10-19T20:38:08.896Z,12.80
2018-10-19T20:40:38.795Z,12.80
2018-10-19T20:43:07.474Z,12.80
2018-10-19T20:45:36.392Z,12.80
2018-10-19T20:48:06.156Z,12.80
2018-10-19T20:50:36.514Z,12.70
2018-10-19T20:53:05.726Z,12.70
2018-10-19T20:55:34.896Z,12.70
2018-10-19T20:58:07.767Z,12.70
2018-10-19T21:00:38.640Z,12.60
2018-10-19T21:03:07.753Z,12.60
2018-10-19T21:05:36.301Z,12.60
2018-10-19T21:08:06.858Z,12.60
2018-10-19T21:10:36.896Z,12.60
2018-10-19T21:13:05.472Z,12.60
2018-10-19T21:15:34.032Z,12.60
2018-10-19T21:18:02.924Z,12.60
2018-10-19T21:20:31.483Z,12.60
2018-10-19T21:23:00.079Z,12.50
2018-10-19T21:25:29.181Z,12.50
2018-10-19T21:27:58.076Z,12.50
2018-10-19T21:30:26.957Z,12.50
2018-10-19T21:32:55.838Z,12.50
2018-10-19T21:35:24.710Z,12.50
2018-10-19T21:37:53.933Z,12.40
2018-10-19T21:40:22.944Z,12.50
2018-10-19T21:42:51.681Z,12.50
2018-10-19T21:45:20.264Z,12.60
2018-10-19T21:47:49.117Z,12.50
2018-10-19T21:50:21.737Z,12.60
2018-10-19T21:52:51.005Z,12.60
2018-10-19T21:55:19.556Z,12.60
2018-10-19T21:57:48.105Z,12.60
2018-10-19T22:00:16.647Z,12.60
2018-10-19T22:02:45.445Z,12.60
2018-10-19T22:05:14.396Z,12.60
2018-10-19T22:07:43.059Z,12.60
2018-10-19T22:10:12.416Z,12.60
2018-10-19T22:12:41.485Z,12.60
2018-10-19T22:15:11.042Z,12.60
2018-10-19T22:17:39.963Z,12.60
2018-10-19T22:20:08.969Z,12.60
2018-10-19T22:22:37.565Z,12.60
2018-10-19T22:25:06.407Z,12.60
2018-10-19T22:27:35.405Z,12.50
2018-10-19T22:30:03.959Z,12.50
2018-10-19T22:32:32.837Z,12.50
2018-10-19T22:35:01.393Z,12.50
2018-10-19T22:37:30.078Z,12.50
2018-10-19T22:39:58.624Z,12.50
2018-10-19T22:42:27.548Z,12.50
2018-10-19T22:44:56.878Z,12.50
2018-10-19T22:47:25.539Z,12.50
2018-10-19T22:49:54.482Z,12.50
2018-10-19T22:52:23.015Z,12.50
2018-10-19T22:54:51.803Z,12.50
2018-10-19T22:57:20.331Z,12.50
2018-10-19T22:59:49.275Z,12.50
2018-10-19T23:02:17.886Z,12.50
2018-10-19T23:04:46.441Z,12.50
2018-10-19T23:07:15.004Z,12.50
2018-10-19T23:09:44.073Z,12.50
2018-10-19T23:12:13.878Z,12.50
2018-10-19T23:14:42.795Z,12.50
2018-10-19T23:17:12.065Z,12.40
2018-10-19T23:19:40.723Z,12.40
2018-10-19T23:22:09.919Z,12.40
2018-10-19T23:24:38.457Z,12.40
2018-10-19T23:27:07.328Z,12.40
2018-10-19T23:29:35.929Z,12.50
2018-10-19T23:32:04.428Z,12.40
2018-10-19T23:34:33.298Z,12.40
2018-10-19T23:37:01.856Z,12.40
2018-10-19T23:39:30.515Z,12.40
2018-10-19T23:41:59.061Z,12.40
2018-10-19T23:44:27.580Z,12.30
2018-10-19T23:46:56.122Z,12.20
2018-10-19T23:49:24.821Z,12.20
2018-10-19T23:51:53.348Z,12.20
2018-10-19T23:54:22.236Z,12.20
2018-10-19T23:56:50.767Z,12.20
2018-10-19T23:59:19.655Z,12.10
